sensor_id;sensor_type;location;lat;lon;timestamp;temperature;humidity
11142;DHT22;5625;50.122;19.864;2022-08-25T00:01:59;20.40;99.90
11142;DHT22;5625;50.122;19.864;2022-08-25T00:04:30;20.40;99.90
11142;DHT22;5625;50.122;19.864;2022-08-25T00:07:00;20.40;99.90
11142;DHT22;5625;50.122;19.864;2022-08-25T00:09:31;20.40;99.90
11142;DHT22;5625;50.122;19.864;2022-08-25T00:12:00;20.40;99.90
11142;DHT22;5625;50.122;19.864;2022-08-25T00:14:30;20.30;99.90
11142;DHT22;5625;50.122;19.864;2022-08-25T00:17:00;20.30;99.90
11142;DHT22;5625;50.122;19.864;2022-08-25T00:19:33;20.30;99.90
11142;DHT22;5625;50.122;19.864;2022-08-25T00:22:02;20.30;99.90
11142;DHT22;5625;50.122;19.864;2022-08-25T00:24:30;20.30;99.90
11142;DHT22;5625;50.122;19.864;2022-08-25T00:26:59;20.30;99.90
11142;DHT22;5625;50.122;19.864;2022-08-25T00:29:29;20.30;99.90
11142;DHT22;5625;50.122;19.864;2022-08-25T00:31:59;20.30;99.90
11142;DHT22;5625;50.122;19.864;2022-08-25T00:34:30;20.20;99.90
11142;DHT22;5625;50.122;19.864;2022-08-25T00:37:00;20.20;99.90
11142;DHT22;5625;50.122;19.864;2022-08-25T00:39:28;20.20;99.90
11142;DHT22;5625;50.122;19.864;2022-08-25T00:41:56;20.20;99.90
11142;DHT22;5625;50.122;19.864;2022-08-25T00:44:27;20.20;99.90
11142;DHT22;5625;50.122;19.864;2022-08-25T00:46:57;20.20;99.90
11142;DHT22;5625;50.122;19.864;2022-08-25T00:49:31;20.20;99.90
11142;DHT22;5625;50.122;19.864;2022-08-25T00:52:04;20.10;99.90
11142;DHT22;5625;50.122;19.864;2022-08-25T00:54:35;20.10;99.90
11142;DHT22;5625;50.122;19.864;2022-08-25T00:57:08;20.10;99.90
11142;DHT22;5625;50.122;19.864;2022-08-25T00:59:39;20.10;99.90
11142;DHT22;5625;50.122;19.864;2022-08-25T01:02:08;20.10;99.90
11142;DHT22;5625;50.122;19.864;2022-08-25T01:04:41;20.10;99.90
11142;DHT22;5625;50.122;19.864;2022-08-25T01:07:16;20.10;99.90
11142;DHT22;5625;50.122;19.864;2022-08-25T01:09:46;20.10;99.90
11142;DHT22;5625;50.122;19.864;2022-08-25T01:12:15;20.10;99.90
11142;DHT22;5625;50.122;19.864;2022-08-25T01:14:44;20.00;99.90
11142;DHT22;5625;50.122;19.864;2022-08-25T01:17:13;20.00;99.90
11142;DHT22;5625;50.122;19.864;2022-08-25T01:19:43;20.00;99.90
11142;DHT22;5625;50.122;19.864;2022-08-25T01:22:12;20.00;99.90
11142;DHT22;5625;50.122;19.864;2022-08-25T01:24:45;20.00;99.90
11142;DHT22;5625;50.122;19.864;2022-08-25T01:27:15;20.00;99.90
11142;DHT22;5625;50.122;19.864;2022-08-25T01:29:44;20.00;99.90
11142;DHT22;5625;50.122;19.864;2022-08-25T01:32:13;20.00;99.90
11142;DHT22;5625;50.122;19.864;2022-08-25T01:34:43;19.90;99.90
11142;DHT22;5625;50.122;19.864;2022-08-25T01:37:14;19.90;99.90
11142;DHT22;5625;50.122;19.864;2022-08-25T01:39:43;19.90;99.90
11142;DHT22;5625;50.122;19.864;2022-08-25T01:42:33;19.90;99.90
11142;DHT22;5625;50.122;19.864;2022-08-25T01:45:05;19.90;99.90
11142;DHT22;5625;50.122;19.864;2022-08-25T01:47:34;19.90;99.90
11142;DHT22;5625;50.122;19.864;2022-08-25T01:50:02;19.90;99.90
11142;DHT22;5625;50.122;19.864;2022-08-25T01:52:37;19.90;99.90
11142;DHT22;5625;50.122;19.864;2022-08-25T01:55:12;19.90;99.90
11142;DHT22;5625;50.122;19.864;2022-08-25T01:57:40;19.90;99.90
11142;DHT22;5625;50.122;19.864;2022-08-25T02:00:10;19.90;99.90
11142;DHT22;5625;50.122;19.864;2022-08-25T02:02:39;19.90;99.90
11142;DHT22;5625;50.122;19.864;2022-08-25T02:05:10;19.80;99.90
11142;DHT22;5625;50.122;19.864;2022-08-25T02:07:40;19.80;99.90
11142;DHT22;5625;50.122;19.864;2022-08-25T02:10:10;19.80;99.90
11142;DHT22;5625;50.122;19.864;2022-08-25T02:12:38;19.80;99.90
11142;DHT22;5625;50.122;19.864;2022-08-25T02:15:08;19.80;99.90
11142;DHT22;5625;50.122;19.864;2022-08-25T02:17:36;19.80;99.90
11142;DHT22;5625;50.122;19.864;2022-08-25T02:20:05;19.80;99.90
11142;DHT22;5625;50.122;19.864;2022-08-25T02:22:34;19.70;99.90
11142;DHT22;5625;50.122;19.864;2022-08-25T02:25:04;19.70;99.90
11142;DHT22;5625;50.122;19.864;2022-08-25T02:27:33;19.70;99.90
11142;DHT22;5625;50.122;19.864;2022-08-25T02:30:01;19.70;99.90
11142;DHT22;5625;50.122;19.864;2022-08-25T02:32:29;19.70;99.90
11142;DHT22;5625;50.122;19.864;2022-08-25T02:34:57;19.70;99.90
11142;DHT22;5625;50.122;19.864;2022-08-25T02:37:25;19.70;99.90
11142;DHT22;5625;50.122;19.864;2022-08-25T02:39:53;19.70;99.90
11142;DHT22;5625;50.122;19.864;2022-08-25T02:42:22;19.70;99.90
11142;DHT22;5625;50.122;19.864;2022-08-25T02:44:50;19.60;99.90
11142;DHT22;5625;50.122;19.864;2022-08-25T02:47:20;19.60;99.90
11142;DHT22;5625;50.122;19.864;2022-08-25T02:49:52;19.60;99.90
11142;DHT22;5625;50.122;19.864;2022-08-25T02:52:21;19.60;99.90
11142;DHT22;5625;50.122;19.864;2022-08-25T02:54:49;19.60;99.90
11142;DHT22;5625;50.122;19.864;2022-08-25T02:57:17;19.60;99.90
11142;DHT22;5625;50.122;19.864;2022-08-25T02:59:47;19.50;99.90
11142;DHT22;5625;50.122;19.864;2022-08-25T03:02:15;19.50;99.90
11142;DHT22;5625;50.122;19.864;2022-08-25T03:04:43;19.50;99.90
11142;DHT22;5625;50.122;19.864;2022-08-25T03:07:12;19.50;99.90
11142;DHT22;5625;50.122;19.864;2022-08-25T03:09:41;19.50;99.90
11142;DHT22;5625;50.122;19.864;2022-08-25T03:12:09;19.50;99.90
11142;DHT22;5625;50.122;19.864;2022-08-25T03:14:38;19.40;99.90
11142;DHT22;5625;50.122;19.864;2022-08-25T03:17:10;19.40;99.90
11142;DHT22;5625;50.122;19.864;2022-08-25T03:19:38;19.40;99.90
11142;DHT22;5625;50.122;19.864;2022-08-25T03:22:06;19.40;99.90
11142;DHT22;5625;50.122;19.864;2022-08-25T03:24:34;19.40;99.90
11142;DHT22;5625;50.122;19.864;2022-08-25T03:27:03;19.40;99.90
11142;DHT22;5625;50.122;19.864;2022-08-25T03:29:32;19.40;99.90
11142;DHT22;5625;50.122;19.864;2022-08-25T03:32:00;19.40;99.90
11142;DHT22;5625;50.122;19.864;2022-08-25T03:34:30;19.40;99.90
11142;DHT22;5625;50.122;19.864;2022-08-25T03:36:58;19.40;99.90
11142;DHT22;5625;50.122;19.864;2022-08-25T03:39:26;19.30;99.90
11142;DHT22;5625;50.122;19.864;2022-08-25T03:41:55;19.30;99.90
11142;DHT22;5625;50.122;19.864;2022-08-25T03:44:23;19.30;99.90
11142;DHT22;5625;50.122;19.864;2022-08-25T03:46:51;19.30;99.90
11142;DHT22;5625;50.122;19.864;2022-08-25T03:49:21;19.30;99.90
11142;DHT22;5625;50.122;19.864;2022-08-25T03:51:52;19.30;99.90
11142;DHT22;5625;50.122;19.864;2022-08-25T03:54:23;19.30;99.90
11142;DHT22;5625;50.122;19.864;2022-08-25T03:56:52;19.30;99.90
11142;DHT22;5625;50.122;19.864;2022-08-25T03:59:20;19.30;99.90
11142;DHT22;5625;50.122;19.864;2022-08-25T04:01:48;19.30;99.90
11142;DHT22;5625;50.122;19.864;2022-08-25T04:04:21;19.30;99.90
11142;DHT22;5625;50.122;19.864;2022-08-25T04:06:50;19.20;99.90
11142;DHT22;5625;50.122;19.864;2022-08-25T04:09:19;19.20;99.90
11142;DHT22;5625;50.122;19.864;2022-08-25T04:11:47;19.20;99.90
11142;DHT22;5625;50.122;19.864;2022-08-25T04:14:19;19.20;99.90
11142;DHT22;5625;50.122;19.864;2022-08-25T04:16:49;19.20;99.90
11142;DHT22;5625;50.122;19.864;2022-08-25T04:19:18;19.20;99.90
11142;DHT22;5625;50.122;19.864;2022-08-25T04:21:46;19.20;99.90
11142;DHT22;5625;50.122;19.864;2022-08-25T04:24:15;19.20;99.90
11142;DHT22;5625;50.122;19.864;2022-08-25T04:26:45;19.30;99.90
11142;DHT22;5625;50.122;19.864;2022-08-25T04:29:17;19.20;99.90
11142;DHT22;5625;50.122;19.864;2022-08-25T04:31:49;19.30;99.90
11142;DHT22;5625;50.122;19.864;2022-08-25T04:34:19;19.30;99.90
11142;DHT22;5625;50.122;19.864;2022-08-25T04:36:57;19.30;99.90
11142;DHT22;5625;50.122;19.864;2022-08-25T04:39:27;19.30;99.90
11142;DHT22;5625;50.122;19.864;2022-08-25T04:41:55;19.40;99.90
11142;DHT22;5625;50.122;19.864;2022-08-25T04:44:23;19.40;99.90
11142;DHT22;5625;50.122;19.864;2022-08-25T04:46:52;19.40;99.90
11142;DHT22;5625;50.122;19.864;2022-08-25T04:49:20;19.50;99.90
11142;DHT22;5625;50.122;19.864;2022-08-25T04:51:48;19.60;99.90
11142;DHT22;5625;50.122;19.864;2022-08-25T04:54:16;19.70;99.90
11142;DHT22;5625;50.122;19.864;2022-08-25T04:56:50;19.70;99.90
11142;DHT22;5625;50.122;19.864;2022-08-25T04:59:23;19.80;99.90
11142;DHT22;5625;50.122;19.864;2022-08-25T05:01:57;19.90;99.90
11142;DHT22;5625;50.122;19.864;2022-08-25T05:04:29;20.00;99.90
11142;DHT22;5625;50.122;19.864;2022-08-25T05:06:57;20.10;99.90
11142;DHT22;5625;50.122;19.864;2022-08-25T05:09:26;20.30;99.90
11142;DHT22;5625;50.122;19.864;2022-08-25T05:12:00;20.40;99.90
11142;DHT22;5625;50.122;19.864;2022-08-25T05:14:28;20.50;99.90
11142;DHT22;5625;50.122;19.864;2022-08-25T05:16:57;20.70;99.90
11142;DHT22;5625;50.122;19.864;2022-08-25T05:19:26;20.80;99.90
11142;DHT22;5625;50.122;19.864;2022-08-25T05:21:54;21.00;99.90
11142;DHT22;5625;50.122;19.864;2022-08-25T05:24:23;21.10;99.90
11142;DHT22;5625;50.122;19.864;2022-08-25T05:26:51;21.30;99.90
11142;DHT22;5625;50.122;19.864;2022-08-25T05:29:21;21.50;99.90
11142;DHT22;5625;50.122;19.864;2022-08-25T05:31:49;21.60;99.90
11142;DHT22;5625;50.122;19.864;2022-08-25T05:34:19;21.70;99.90
11142;DHT22;5625;50.122;19.864;2022-08-25T05:36:47;21.90;99.90
11142;DHT22;5625;50.122;19.864;2022-08-25T05:39:16;22.10;99.90
11142;DHT22;5625;50.122;19.864;2022-08-25T05:41:44;22.30;99.90
11142;DHT22;5625;50.122;19.864;2022-08-25T05:44:12;22.50;99.90
11142;DHT22;5625;50.122;19.864;2022-08-25T05:46:48;22.80;99.90
11142;DHT22;5625;50.122;19.864;2022-08-25T05:49:16;23.00;99.90
11142;DHT22;5625;50.122;19.864;2022-08-25T05:51:45;23.20;99.90
11142;DHT22;5625;50.122;19.864;2022-08-25T05:54:13;23.50;99.90
11142;DHT22;5625;50.122;19.864;2022-08-25T05:56:41;23.70;99.90
11142;DHT22;5625;50.122;19.864;2022-08-25T05:59:11;24.00;99.90
11142;DHT22;5625;50.122;19.864;2022-08-25T06:01:39;24.30;99.90
11142;DHT22;5625;50.122;19.864;2022-08-25T06:04:25;24.50;99.90
11142;DHT22;5625;50.122;19.864;2022-08-25T06:06:53;24.80;99.90
11142;DHT22;5625;50.122;19.864;2022-08-25T06:09:22;25.10;99.90
11142;DHT22;5625;50.122;19.864;2022-08-25T06:11:50;25.40;99.90
11142;DHT22;5625;50.122;19.864;2022-08-25T06:14:21;25.70;99.90
11142;DHT22;5625;50.122;19.864;2022-08-25T06:16:49;26.00;99.90
11142;DHT22;5625;50.122;19.864;2022-08-25T06:19:18;26.20;99.90
11142;DHT22;5625;50.122;19.864;2022-08-25T06:21:48;26.50;99.90
11142;DHT22;5625;50.122;19.864;2022-08-25T06:24:16;26.80;99.90
11142;DHT22;5625;50.122;19.864;2022-08-25T06:26:45;27.00;99.90
11142;DHT22;5625;50.122;19.864;2022-08-25T06:29:13;27.30;99.90
11142;DHT22;5625;50.122;19.864;2022-08-25T06:31:41;27.60;99.90
11142;DHT22;5625;50.122;19.864;2022-08-25T06:34:10;27.90;99.90
11142;DHT22;5625;50.122;19.864;2022-08-25T06:36:39;28.10;99.90
11142;DHT22;5625;50.122;19.864;2022-08-25T06:39:09;28.40;99.90
11142;DHT22;5625;50.122;19.864;2022-08-25T06:41:37;28.70;99.90
11142;DHT22;5625;50.122;19.864;2022-08-25T06:44:05;29.00;99.90
11142;DHT22;5625;50.122;19.864;2022-08-25T06:46:34;29.30;99.90
11142;DHT22;5625;50.122;19.864;2022-08-25T06:49:03;29.50;99.90
11142;DHT22;5625;50.122;19.864;2022-08-25T06:51:32;29.80;99.90
11142;DHT22;5625;50.122;19.864;2022-08-25T06:54:02;30.10;99.90
11142;DHT22;5625;50.122;19.864;2022-08-25T06:56:32;30.30;99.90
11142;DHT22;5625;50.122;19.864;2022-08-25T06:59:01;30.60;99.90
11142;DHT22;5625;50.122;19.864;2022-08-25T07:01:30;30.70;99.90
11142;DHT22;5625;50.122;19.864;2022-08-25T07:04:00;30.70;99.90
11142;DHT22;5625;50.122;19.864;2022-08-25T07:06:30;31.20;99.90
11142;DHT22;5625;50.122;19.864;2022-08-25T07:08:59;31.40;99.90
11142;DHT22;5625;50.122;19.864;2022-08-25T07:11:27;31.60;99.90
11142;DHT22;5625;50.122;19.864;2022-08-25T07:14:02;31.80;99.90
11142;DHT22;5625;50.122;19.864;2022-08-25T07:16:30;31.80;99.90
11142;DHT22;5625;50.122;19.864;2022-08-25T07:18:59;32.10;99.90
11142;DHT22;5625;50.122;19.864;2022-08-25T07:21:28;32.40;99.90
11142;DHT22;5625;50.122;19.864;2022-08-25T07:24:04;32.40;99.90
11142;DHT22;5625;50.122;19.864;2022-08-25T07:26:33;32.60;99.90
11142;DHT22;5625;50.122;19.864;2022-08-25T07:29:10;32.50;99.90
11142;DHT22;5625;50.122;19.864;2022-08-25T07:31:38;32.20;99.90
11142;DHT22;5625;50.122;19.864;2022-08-25T07:34:08;32.70;99.90
11142;DHT22;5625;50.122;19.864;2022-08-25T07:36:55;32.80;99.90
11142;DHT22;5625;50.122;19.864;2022-08-25T07:39:24;33.00;99.90
11142;DHT22;5625;50.122;19.864;2022-08-25T07:41:55;33.20;99.90
11142;DHT22;5625;50.122;19.864;2022-08-25T07:44:25;33.40;99.90
11142;DHT22;5625;50.122;19.864;2022-08-25T07:46:54;33.50;99.90
11142;DHT22;5625;50.122;19.864;2022-08-25T07:49:25;33.80;99.90
11142;DHT22;5625;50.122;19.864;2022-08-25T07:52:05;33.90;99.70
11142;DHT22;5625;50.122;19.864;2022-08-25T07:54:35;34.20;99.40
11142;DHT22;5625;50.122;19.864;2022-08-25T07:57:06;33.40;99.10
11142;DHT22;5625;50.122;19.864;2022-08-25T07:59:39;33.60;99.60
11142;DHT22;5625;50.122;19.864;2022-08-25T08:02:08;33.80;99.80
11142;DHT22;5625;50.122;19.864;2022-08-25T08:04:46;34.10;99.30
11142;DHT22;5625;50.122;19.864;2022-08-25T08:07:16;34.50;99.10
11142;DHT22;5625;50.122;19.864;2022-08-25T08:09:45;34.80;98.80
11142;DHT22;5625;50.122;19.864;2022-08-25T08:12:22;35.10;98.40
11142;DHT22;5625;50.122;19.864;2022-08-25T08:14:52;35.20;97.60
11142;DHT22;5625;50.122;19.864;2022-08-25T08:17:20;35.60;97.60
11142;DHT22;5625;50.122;19.864;2022-08-25T08:19:49;35.20;97.00
11142;DHT22;5625;50.122;19.864;2022-08-25T08:22:18;34.70;97.30
11142;DHT22;5625;50.122;19.864;2022-08-25T08:24:46;34.60;97.40
11142;DHT22;5625;50.122;19.864;2022-08-25T08:27:22;34.90;97.60
11142;DHT22;5625;50.122;19.864;2022-08-25T08:29:51;35.10;96.90
11142;DHT22;5625;50.122;19.864;2022-08-25T08:32:20;35.40;96.40
11142;DHT22;5625;50.122;19.864;2022-08-25T08:35:09;35.30;96.10
11142;DHT22;5625;50.122;19.864;2022-08-25T08:37:37;35.70;96.00
11142;DHT22;5625;50.122;19.864;2022-08-25T08:40:09;35.80;96.00
11142;DHT22;5625;50.122;19.864;2022-08-25T08:42:46;35.70;95.50
11142;DHT22;5625;50.122;19.864;2022-08-25T08:45:34;35.70;95.70
11142;DHT22;5625;50.122;19.864;2022-08-25T08:48:23;35.30;95.20
11142;DHT22;5625;50.122;19.864;2022-08-25T08:51:02;35.00;96.20
11142;DHT22;5625;50.122;19.864;2022-08-25T08:53:42;35.40;95.90
11142;DHT22;5625;50.122;19.864;2022-08-25T08:56:14;35.50;95.60
11142;DHT22;5625;50.122;19.864;2022-08-25T08:58:46;35.50;95.40
11142;DHT22;5625;50.122;19.864;2022-08-25T09:01:24;35.80;95.50
11142;DHT22;5625;50.122;19.864;2022-08-25T09:03:57;35.90;95.30
11142;DHT22;5625;50.122;19.864;2022-08-25T09:06:31;35.90;95.00
11142;DHT22;5625;50.122;19.864;2022-08-25T09:09:04;35.90;94.70
11142;DHT22;5625;50.122;19.864;2022-08-25T09:11:48;36.00;94.70
11142;DHT22;5625;50.122;19.864;2022-08-25T09:14:44;35.90;93.80
11142;DHT22;5625;50.122;19.864;2022-08-25T09:17:38;35.70;94.50
11142;DHT22;5625;50.122;19.864;2022-08-25T09:20:32;35.60;94.40
11142;DHT22;5625;50.122;19.864;2022-08-25T09:23:12;35.90;94.30
11142;DHT22;5625;50.122;19.864;2022-08-25T09:25:52;35.60;94.00
11142;DHT22;5625;50.122;19.864;2022-08-25T09:28:27;35.50;94.20
11142;DHT22;5625;50.122;19.864;2022-08-25T09:30:59;35.30;94.40
11142;DHT22;5625;50.122;19.864;2022-08-25T09:33:32;35.50;94.50
11142;DHT22;5625;50.122;19.864;2022-08-25T09:36:01;35.60;94.80
11142;DHT22;5625;50.122;19.864;2022-08-25T09:38:32;35.80;94.40
11142;DHT22;5625;50.122;19.864;2022-08-25T09:41:00;35.80;94.00
11142;DHT22;5625;50.122;19.864;2022-08-25T09:43:30;35.70;94.20
11142;DHT22;5625;50.122;19.864;2022-08-25T09:46:01;35.70;94.30
11142;DHT22;5625;50.122;19.864;2022-08-25T09:48:33;35.80;93.80
11142;DHT22;5625;50.122;19.864;2022-08-25T09:51:16;35.80;94.00
11142;DHT22;5625;50.122;19.864;2022-08-25T09:53:50;36.10;94.20
11142;DHT22;5625;50.122;19.864;2022-08-25T09:56:20;36.10;93.80
11142;DHT22;5625;50.122;19.864;2022-08-25T09:58:48;36.30;93.80
11142;DHT22;5625;50.122;19.864;2022-08-25T10:01:18;35.90;93.60
11142;DHT22;5625;50.122;19.864;2022-08-25T10:03:59;36.10;93.60
11142;DHT22;5625;50.122;19.864;2022-08-25T10:06:32;36.10;93.50
11142;DHT22;5625;50.122;19.864;2022-08-25T10:09:05;36.30;93.50
11142;DHT22;5625;50.122;19.864;2022-08-25T10:11:37;36.30;93.70
11142;DHT22;5625;50.122;19.864;2022-08-25T10:14:17;36.40;93.30
11142;DHT22;5625;50.122;19.864;2022-08-25T10:16:47;36.50;93.40
11142;DHT22;5625;50.122;19.864;2022-08-25T10:19:24;36.60;93.30
11142;DHT22;5625;50.122;19.864;2022-08-25T10:22:06;36.40;92.10
11142;DHT22;5625;50.122;19.864;2022-08-25T10:24:38;36.50;92.80
11142;DHT22;5625;50.122;19.864;2022-08-25T10:27:17;36.60;92.80
11142;DHT22;5625;50.122;19.864;2022-08-25T10:30:14;36.70;92.20
11142;DHT22;5625;50.122;19.864;2022-08-25T10:33:08;36.40;92.40
11142;DHT22;5625;50.122;19.864;2022-08-25T10:35:47;36.50;92.60
11142;DHT22;5625;50.122;19.864;2022-08-25T10:38:41;36.70;92.40
11142;DHT22;5625;50.122;19.864;2022-08-25T10:41:25;36.50;92.80
11142;DHT22;5625;50.122;19.864;2022-08-25T10:44:01;36.40;92.00
11142;DHT22;5625;50.122;19.864;2022-08-25T10:46:35;36.30;91.80
11142;DHT22;5625;50.122;19.864;2022-08-25T10:49:09;36.40;91.90
11142;DHT22;5625;50.122;19.864;2022-08-25T10:51:51;36.40;92.00
11142;DHT22;5625;50.122;19.864;2022-08-25T10:54:41;36.30;92.00
11142;DHT22;5625;50.122;19.864;2022-08-25T10:57:20;36.20;91.60
11142;DHT22;5625;50.122;19.864;2022-08-25T10:59:54;36.10;91.40
11142;DHT22;5625;50.122;19.864;2022-08-25T11:02:55;36.10;91.90
11142;DHT22;5625;50.122;19.864;2022-08-25T11:05:30;36.10;91.60
11142;DHT22;5625;50.122;19.864;2022-08-25T11:08:09;36.10;92.30
11142;DHT22;5625;50.122;19.864;2022-08-25T11:10:43;36.20;91.10
11142;DHT22;5625;50.122;19.864;2022-08-25T11:13:19;36.00;91.30
11142;DHT22;5625;50.122;19.864;2022-08-25T11:15:52;36.20;91.00
11142;DHT22;5625;50.122;19.864;2022-08-25T11:18:47;35.90;91.00
11142;DHT22;5625;50.122;19.864;2022-08-25T11:21:19;35.90;91.20
11142;DHT22;5625;50.122;19.864;2022-08-25T11:23:59;35.70;91.20
11142;DHT22;5625;50.122;19.864;2022-08-25T11:26:32;35.70;91.40
11142;DHT22;5625;50.122;19.864;2022-08-25T11:29:08;35.80;91.30
11142;DHT22;5625;50.122;19.864;2022-08-25T11:31:41;35.90;91.50
11142;DHT22;5625;50.122;19.864;2022-08-25T11:34:13;35.80;90.70
11142;DHT22;5625;50.122;19.864;2022-08-25T11:36:50;35.90;90.90
11142;DHT22;5625;50.122;19.864;2022-08-25T11:39:31;35.90;90.30
11142;DHT22;5625;50.122;19.864;2022-08-25T11:42:13;35.90;90.50
11142;DHT22;5625;50.122;19.864;2022-08-25T11:44:53;35.90;90.70
11142;DHT22;5625;50.122;19.864;2022-08-25T11:47:40;35.70;90.60
11142;DHT22;5625;50.122;19.864;2022-08-25T11:50:26;35.70;90.50
11142;DHT22;5625;50.122;19.864;2022-08-25T11:52:59;35.70;90.90
11142;DHT22;5625;50.122;19.864;2022-08-25T11:55:46;35.70;90.70
11142;DHT22;5625;50.122;19.864;2022-08-25T12:04:37;35.30;89.70
11142;DHT22;5625;50.122;19.864;2022-08-25T12:07:25;35.20;90.90
11142;DHT22;5625;50.122;19.864;2022-08-25T12:10:15;35.30;91.70
11142;DHT22;5625;50.122;19.864;2022-08-25T12:13:04;35.00;91.20
11142;DHT22;5625;50.122;19.864;2022-08-25T12:15:55;35.10;91.70
11142;DHT22;5625;50.122;19.864;2022-08-25T12:18:42;34.80;91.20
11142;DHT22;5625;50.122;19.864;2022-08-25T12:21:27;34.80;91.70
11142;DHT22;5625;50.122;19.864;2022-08-25T12:24:12;34.60;91.40
11142;DHT22;5625;50.122;19.864;2022-08-25T12:26:47;34.70;91.90
11142;DHT22;5625;50.122;19.864;2022-08-25T12:29:29;34.70;91.60
11142;DHT22;5625;50.122;19.864;2022-08-25T12:35:21;34.70;92.40
11142;DHT22;5625;50.122;19.864;2022-08-25T12:37:56;34.80;92.70
11142;DHT22;5625;50.122;19.864;2022-08-25T12:40:32;34.70;92.60
11142;DHT22;5625;50.122;19.864;2022-08-25T12:43:04;34.70;92.80
11142;DHT22;5625;50.122;19.864;2022-08-25T12:45:40;34.70;92.00
11142;DHT22;5625;50.122;19.864;2022-08-25T12:51:17;34.80;92.10
11142;DHT22;5625;50.122;19.864;2022-08-25T12:53:48;34.90;91.80
11142;DHT22;5625;50.122;19.864;2022-08-25T12:56:30;34.70;92.20
11142;DHT22;5625;50.122;19.864;2022-08-25T12:59:16;34.40;92.20
11142;DHT22;5625;50.122;19.864;2022-08-25T13:07:47;33.80;91.80
11142;DHT22;5625;50.122;19.864;2022-08-25T13:10:27;33.80;91.70
11142;DHT22;5625;50.122;19.864;2022-08-25T13:13:02;33.80;91.90
11142;DHT22;5625;50.122;19.864;2022-08-25T13:15:35;33.70;91.80
11142;DHT22;5625;50.122;19.864;2022-08-25T13:18:30;33.60;91.80
11142;DHT22;5625;50.122;19.864;2022-08-25T13:21:05;33.50;92.00
11142;DHT22;5625;50.122;19.864;2022-08-25T13:23:36;33.50;92.00
11142;DHT22;5625;50.122;19.864;2022-08-25T13:26:05;33.50;92.10
11142;DHT22;5625;50.122;19.864;2022-08-25T13:28:37;33.30;92.00
11142;DHT22;5625;50.122;19.864;2022-08-25T13:31:13;33.20;92.40
11142;DHT22;5625;50.122;19.864;2022-08-25T13:33:51;33.30;92.90
11142;DHT22;5625;50.122;19.864;2022-08-25T13:36:22;33.30;92.90
11142;DHT22;5625;50.122;19.864;2022-08-25T13:39:21;33.30;92.90
11142;DHT22;5625;50.122;19.864;2022-08-25T13:42:13;33.20;93.10
11142;DHT22;5625;50.122;19.864;2022-08-25T13:44:41;33.00;92.90
11142;DHT22;5625;50.122;19.864;2022-08-25T13:47:31;33.00;92.40
11142;DHT22;5625;50.122;19.864;2022-08-25T13:50:21;32.80;92.50
11142;DHT22;5625;50.122;19.864;2022-08-25T13:52:54;32.90;92.60
11142;DHT22;5625;50.122;19.864;2022-08-25T13:55:25;32.90;92.80
11142;DHT22;5625;50.122;19.864;2022-08-25T13:57:56;32.90;92.90
11142;DHT22;5625;50.122;19.864;2022-08-25T14:00:31;32.80;92.40
11142;DHT22;5625;50.122;19.864;2022-08-25T14:03:02;32.70;92.80
11142;DHT22;5625;50.122;19.864;2022-08-25T14:05:42;32.60;92.50
11142;DHT22;5625;50.122;19.864;2022-08-25T14:08:29;32.60;92.80
11142;DHT22;5625;50.122;19.864;2022-08-25T14:11:05;32.60;92.70
11142;DHT22;5625;50.122;19.864;2022-08-25T14:13:41;32.50;92.30
11142;DHT22;5625;50.122;19.864;2022-08-25T14:16:12;32.40;92.10
11142;DHT22;5625;50.122;19.864;2022-08-25T14:18:46;32.40;92.30
11142;DHT22;5625;50.122;19.864;2022-08-25T14:21:19;32.20;91.90
11142;DHT22;5625;50.122;19.864;2022-08-25T14:23:49;32.20;91.90
11142;DHT22;5625;50.122;19.864;2022-08-25T14:26:18;32.20;92.40
11142;DHT22;5625;50.122;19.864;2022-08-25T14:28:46;32.00;92.50
11142;DHT22;5625;50.122;19.864;2022-08-25T14:31:23;31.90;92.90
11142;DHT22;5625;50.122;19.864;2022-08-25T14:33:58;31.90;92.60
11142;DHT22;5625;50.122;19.864;2022-08-25T14:36:30;31.90;93.10
11142;DHT22;5625;50.122;19.864;2022-08-25T14:39:01;31.90;93.30
11142;DHT22;5625;50.122;19.864;2022-08-25T14:41:36;31.80;93.40
11142;DHT22;5625;50.122;19.864;2022-08-25T14:44:05;31.80;93.40
11142;DHT22;5625;50.122;19.864;2022-08-25T14:46:37;31.70;93.30
11142;DHT22;5625;50.122;19.864;2022-08-25T14:49:10;31.70;93.10
11142;DHT22;5625;50.122;19.864;2022-08-25T14:51:40;31.70;93.30
11142;DHT22;5625;50.122;19.864;2022-08-25T14:54:12;31.60;93.40
11142;DHT22;5625;50.122;19.864;2022-08-25T14:56:46;31.60;93.50
11142;DHT22;5625;50.122;19.864;2022-08-25T14:59:15;31.50;93.90
11142;DHT22;5625;50.122;19.864;2022-08-25T15:01:43;31.50;94.20
11142;DHT22;5625;50.122;19.864;2022-08-25T15:04:19;31.50;94.30
11142;DHT22;5625;50.122;19.864;2022-08-25T15:06:53;31.40;94.20
11142;DHT22;5625;50.122;19.864;2022-08-25T15:09:22;31.40;94.00
11142;DHT22;5625;50.122;19.864;2022-08-25T15:11:51;31.20;93.60
11142;DHT22;5625;50.122;19.864;2022-08-25T15:14:22;31.20;93.60
11142;DHT22;5625;50.122;19.864;2022-08-25T15:16:59;31.10;93.50
11142;DHT22;5625;50.122;19.864;2022-08-25T15:19:29;31.20;93.60
11142;DHT22;5625;50.122;19.864;2022-08-25T15:21:59;31.10;93.80
11142;DHT22;5625;50.122;19.864;2022-08-25T15:24:27;31.10;94.30
11142;DHT22;5625;50.122;19.864;2022-08-25T15:26:58;31.10;94.70
11142;DHT22;5625;50.122;19.864;2022-08-25T15:29:28;31.10;95.10
11142;DHT22;5625;50.122;19.864;2022-08-25T15:31:58;31.10;95.20
11142;DHT22;5625;50.122;19.864;2022-08-25T15:34:27;31.00;95.40
11142;DHT22;5625;50.122;19.864;2022-08-25T15:36:56;31.00;95.40
11142;DHT22;5625;50.122;19.864;2022-08-25T15:39:26;31.00;95.40
11142;DHT22;5625;50.122;19.864;2022-08-25T15:41:54;31.10;95.40
11142;DHT22;5625;50.122;19.864;2022-08-25T15:44:23;31.10;94.80
11142;DHT22;5625;50.122;19.864;2022-08-25T15:46:55;31.10;95.00
11142;DHT22;5625;50.122;19.864;2022-08-25T15:49:24;31.10;95.00
11142;DHT22;5625;50.122;19.864;2022-08-25T15:51:57;30.90;95.10
11142;DHT22;5625;50.122;19.864;2022-08-25T15:54:28;30.90;95.40
11142;DHT22;5625;50.122;19.864;2022-08-25T15:56:56;30.80;95.70
11142;DHT22;5625;50.122;19.864;2022-08-25T15:59:27;30.70;95.40
11142;DHT22;5625;50.122;19.864;2022-08-25T16:01:57;30.60;95.90
11142;DHT22;5625;50.122;19.864;2022-08-25T16:04:27;30.70;96.20
11142;DHT22;5625;50.122;19.864;2022-08-25T16:06:55;30.70;96.50
11142;DHT22;5625;50.122;19.864;2022-08-25T16:09:29;30.70;96.30
11142;DHT22;5625;50.122;19.864;2022-08-25T16:11:58;30.60;96.40
11142;DHT22;5625;50.122;19.864;2022-08-25T16:14:32;30.60;96.50
11142;DHT22;5625;50.122;19.864;2022-08-25T16:17:00;30.50;96.70
11142;DHT22;5625;50.122;19.864;2022-08-25T16:19:29;30.40;97.00
11142;DHT22;5625;50.122;19.864;2022-08-25T16:21:58;30.40;97.30
11142;DHT22;5625;50.122;19.864;2022-08-25T16:24:26;30.40;97.40